Lisboa, Portugal

07:12 PM -01 em 23 de Março de 2017 (GMT -0100)
Rua Marechal Costa Gomes | | Change Station

Elev 187 ft 38.80 °N, 9.11 °W | Updated 1 minute ago

Partly Cloudy
Parcialmente Nublado
46.0 °F
Aparente 46 °F
N
0.6
Vento Variável Vento de Sul
Gusts 1.2 mph

Hoje
Máxima -- | Mínima -- °F
--% Possibilidade de Precip.
Ontem
Máxima -- | Mínima -- °F
Precip. -- pol
Pressão 29.95 pol
Visibilidade 6.2 milhas
Nuvens Poucas 2000 ft
Poucas 2800 ft
Sensação Térmica 46 °F
Ponto de Orvalho 42 °F
Humidade 84%
Chuva 0.25 pol
Altura de Neve Não disponível
5:35 AM 5:51 PM
Quarto minguante, 21% visible
METAR LPPT 232000Z 26004KT 9999 FEW020 FEW028TCU 06/05 Q1014
Pressão 29.95 pol
Visibilidade 6.2 milhas
Nuvens Poucas 2000 ft
Poucas 2800 ft
Sensação Térmica 46 °F
Ponto de Orvalho 42 °F
Humidade 84%
Chuva 0.25 pol
Altura de Neve Não disponível
5:35 AM 5:51 PM
Quarto minguante, 21% visible
METAR LPPT 232000Z 26004KT 9999 FEW020 FEW028TCU 06/05 Q1014

Get Severe Weather Alerts

Thanks for signing up!

Be on the lookout for a verification email in your inbox.

You'll start receiving the daily forecast at 8 AM.

×

10-Day Weather Forecast

×

Almanac

Astronomia

Mar. 23, 2017 Nascer Pôr
Hora atual
Crepúsculo civil
Crepúsculo náutico
Crepúsculo astronómico
Lua
Comprimento da luz visível
Duração do Dia
Tomorrow will be .
, % of the Moon is Illuminated

Extremos de Hoje

Altitude na localidade Altura mais baixa na localidade

Community

WunderPhotos

Upload Photos

1,962,540 fotografias inseridas!

WunderBlog® & News

Nearby

Qualidade do Ar

  Qualidade do Ar Índice da Q.A. Poluente
Not available.

Altura da Neve

Estação altura Altitude

Actividade Sísmisca

Cidade Distância Mag. Hora & Data
Mínima magnitude apresentada é 2.5.

Actividade Sísmisca

Cidade Distância Mag. Hora & Data
Mínima magnitude apresentada é 2.5.

Temperaturas das Águas Costeiras

Local Temperatura

Stations

Estações Meteorológicas Próximas

Localização da Estação Temp. Sensação Térmica Ponto de Orvalho Humidade Vento Precip. Elev Actualizado Tipo